Terminal Aerodrome Forecast
Issued by NWS

Home | Current Version | Previous Version | Text Only | Print | Product List | Glossary On
Versions: 1 2 3 4 5 6 7 8 9 10 11 12
096
FTUS44 KLIX 210520
TAFGPT
TAF
KGPT 210520Z 2106/2206 00000KT P6SM SKC
     FM211200 05004KT P6SM FEW015 FEW200
     FM211700 11007KT P6SM FEW035 SCT200
     FM212000 14009KT P6SM FEW035 SCT200=

USA.gov is the U.S. government's official web portal to all federal, state and local government web resources and services.